Address 0xbffaec07e71092edc8ab8094165d76838cdae0d6

 
Txn Hash
Block
From
To
Value [Txn Fee]
0x49cf0482fa4e707cfd4ce27322bc1d834bef305ca9fdda82bae28377780a8e9c87701012021-07-01 7:16:1723 days 11 hrs ago0xbffaec07e71092edc8ab8094165d76838cdae0d6OUT0x917117ded6f1effe754e2cc55a87c4cdd8c00a6f0.004 BNB0.000105
0xabcaf766ff82d1a1e88e8379f44455f457f008f5e4596e317f7b74dc1b18482387695892021-07-01 6:49:4123 days 11 hrs ago0xbffaec07e71092edc8ab8094165d76838cdae0d6OUT PancakeSwap: Router v20 BNB0.00088454
0xaeae2cd155149d370905e52e9dd41fbe0d9cce42bdf0f5fe83322e4ce6224d4387695812021-07-01 6:49:1723 days 11 hrs ago0xbffaec07e71092edc8ab8094165d76838cdae0d6OUT 0x9ab776357142694841d42c1abe08c817a7d134000 BNB0.00023683
0xcbc345caed3e58fec160c701479086529d1871502fccf705b2b8a203fe97105c87695632021-07-01 6:48:2323 days 11 hrs ago0xe9435f59593cca235265fef52a7130179bb17f1c IN 0xbffaec07e71092edc8ab8094165d76838cdae0d60.001 BNB0.000105
0x20e26d4437d8e9decf2e6b2923a5db09cb4bb58a842dc2915c6930a4e1e4696787039882021-06-28 23:42:4825 days 18 hrs ago0xbffaec07e71092edc8ab8094165d76838cdae0d6OUT Neftipiedia : NFT Token0 BNB0.00010648
0xb27fe7e6936e8a2ae2a42d3fbe1681f6d514b1622637baf3fc344ba6ae46be3e85297362021-06-22 21:55:5031 days 20 hrs ago0xbffaec07e71092edc8ab8094165d76838cdae0d6OUT SafuYield Protocol: SAFUYIELD Token0 BNB0.00028545
0x0347f83d7fb11b0e30cab6ad70c0a6127d01160040bc15fc8f90c9373dccce2c85297192021-06-22 21:54:5931 days 20 hrs ago0x36eda9574f76d09c5816f62db22d35cf7d6e9f13 IN 0xbffaec07e71092edc8ab8094165d76838cdae0d60.001 BNB0.000105
0xe6d1d1cca314157af07ecf74109415ed40a3f831f260e818bb01d4ba433649c083254592021-06-15 18:35:4839 days 2 mins ago0xbffaec07e71092edc8ab8094165d76838cdae0d6OUT0x54ede32c5177edc47aceca11a54e129423c853240.0008 BNB0.000105
0xd251fdd4d57411ebc739f18fdf21c490f5e8a13ed10dfa76d1a82be92bed90b881517882021-06-09 16:40:4045 days 1 hr ago0xbffaec07e71092edc8ab8094165d76838cdae0d6OUT 0x65a017cb8f4e840d2ee111cebfca602cf22908730 BNB0.00041661
0x994c4b3341a0e30f4e6d0b56df4cd746d68bcf062527caeeb72f5112e55cb08781177702021-06-08 12:14:4946 days 6 hrs ago0xbffaec07e71092edc8ab8094165d76838cdae0d6OUT SafuYield Protocol: SAFUYIELD Token0 BNB0.000489655
0xa8f86f6365fbdaee00bb1232a2e311506fa3bcb0f861011973dff0fc357e59cd80387412021-06-05 18:16:1849 days 21 mins ago0x1c946c1b31f9513eebd9672d5f530b8468427b16 IN 0xbffaec07e71092edc8ab8094165d76838cdae0d60.001 BNB0.000105
0x8f82aacaca01279e1712dc82cbdb0d29671697a559e12a732d1fce4fd2af417778603432021-05-30 13:06:2355 days 5 hrs ago0xbffaec07e71092edc8ab8094165d76838cdae0d6OUT Cryptochrome: bCHM Token0 BNB0.00011009
0x2556ade606c6fe20fd541889cf619710dbc5d7e0a00be80f4cae54cbe84a6aa878603332021-05-30 13:05:5355 days 5 hrs ago0x7b1dfa18e3482ef54cb962e9733b535debfccfac IN 0xbffaec07e71092edc8ab8094165d76838cdae0d60.001 BNB0.000105
0x789d3224e77179af7214f99dfdb438212046d55a99a1d0d10ee47b78487cf24577387232021-05-26 7:09:3259 days 11 hrs ago0xbffaec07e71092edc8ab8094165d76838cdae0d6OUT 0xca69c118fa550387794d48900a866891217e5c9f0 BNB0.000105575
0xf374dd0286fe75110775c3cef692683eeda2cf3c1907cea455110374b2d76c7875672592021-05-20 7:41:2265 days 10 hrs ago0xbffaec07e71092edc8ab8094165d76838cdae0d6OUT 0xe19e8a3f71d394d9341369df055e023a1d2de6a40 BNB0.000589475
0x342ac6b80a1d0d63a68492b2b64b2ddcee63ac93f486dc78cd21a5572b7bbfc075672502021-05-20 7:40:5565 days 10 hrs ago0xd9e59fda22236088af3830f7870795b1d81af924 IN 0xbffaec07e71092edc8ab8094165d76838cdae0d60.0009 BNB0.000105
0x25d3fb1ad85d7af346a1f3cd6b8dc3c5a67a3912b70a5ac0f509288ddb7e27b974328832021-05-15 14:12:0970 days 4 hrs ago0xbffaec07e71092edc8ab8094165d76838cdae0d6OUT0x354003d09ee2a709b9c3499f28307dd3499a9ac90.003981945 BNB0.000105
0x6f240bd56f38f211929c527cc39ab7441881a1daeb4d0c56f957176248e905c774328612021-05-15 14:11:0370 days 4 hrs ago0xbffaec07e71092edc8ab8094165d76838cdae0d6OUT 0xd948a2c11626a0efc25f4e0cea4986056ac41fed0 BNB0.000411515
0xa3262e18e034f89bc4d054564ec07d29ccd0a792a38832630a14a33da4e372e174328452021-05-15 14:10:1570 days 4 hrs ago0x8a84e04d0aaf67f57d92e9b4fd7671cd29ecd2c7 IN 0xbffaec07e71092edc8ab8094165d76838cdae0d60.00449846 BNB0.000105
0x431634c946398514835230ed66160f79e63975bea614dbfd5b4dded51e08637073423542021-05-12 8:40:2573 days 9 hrs ago0xbffaec07e71092edc8ab8094165d76838cdae0d6OUT0x354003d09ee2a709b9c3499f28307dd3499a9ac90.00608845 BNB0.000147
0x7fb3f9564ff9e8547292747760c00b699c1ff6f0710418c233909671dd12e6bc73423152021-05-12 8:38:0973 days 10 hrs ago0xbffaec07e71092edc8ab8094165d76838cdae0d6OUT 0x7ced6a01b4161bd0cc142256c4227bd32f3345f70 BNB0.00083531
0xe782334fbac7c936763ee3dd5efa9e4c33e74b44157fd8e40306f7ed5a86618073422632021-05-12 8:35:0173 days 10 hrs ago0x8a84e04d0aaf67f57d92e9b4fd7671cd29ecd2c7 IN 0xbffaec07e71092edc8ab8094165d76838cdae0d60.00707076 BNB0.000147
0x3f6970fe3aa360ad31d5d702175a655d2ea462b23e21dcf4c2005ac379b1a20e67102012021-04-19 19:18:3995 days 23 hrs ago0xbffaec07e71092edc8ab8094165d76838cdae0d6OUT0x354003d09ee2a709b9c3499f28307dd3499a9ac90.032644517415894 BNB0.000105
0x18796d5ef6a43606822925018e82809488f141fca75ec6d8ba9a4a7d99c9005e67101862021-04-19 19:17:5495 days 23 hrs ago0xbffaec07e71092edc8ab8094165d76838cdae0d6OUT Liquifi DAO: LQF Token0 BNB0.00010794
0xcce56601a3e59032997b1ac9a3c094df9a9630a7b78635d058da822118aa9a6f67101762021-04-19 19:17:2495 days 23 hrs ago0x8a84e04d0aaf67f57d92e9b4fd7671cd29ecd2c7 IN 0xbffaec07e71092edc8ab8094165d76838cdae0d60.032857457415894 BNB0.000105
[ Download CSV Export 
Latest 1 internal transaction
Parent Txn Hash Block From To Value
0xabcaf766ff82d1a1e88e8379f44455f457f008f5e4596e317f7b74dc1b18482387695892021-07-01 6:49:4123 days 11 hrs ago PancakeSwap: Router v20xbffaec07e71092edc8ab8094165d76838cdae0d60.004008957609860096 BNB
[ Download CSV Export 
Loading

Contract Name:
0 BNB

Compiler Version
0

Optimization Enabled:
0 BNB

Other Settings:
-NA-
Block Transaction Gas Used Reward
Age Block Fee Address BC Fee Address Voting Power Jailed Incoming
Block Uncle Number Difficulty Gas Used Reward
Loading
Loading
Make sure to use the "Vote Down" button for any spammy posts, and the "Vote Up" for interesting conversations.